Time;durP1;ratioP1;P1;durP2;ratioP2;P2;SDS_P1;SDS_P2;PMS_P1;PMS_P2;Temp;Humidity;BMP_temperature;BMP_pressure;BME280_temperature;BME280_humidity;BME280_pressure;Samples;Min_cycle;Max_cycle;Signal;HPM_P1;HPM_P2
2021/03/05 00:00:13;;;;;;;18.42;12.18;;;;;;;6.59;100.00;102947.38;5072879;28;20395;-64
2021/03/05 00:02:39;;;;;;;22.02;12.82;;;;;;;6.59;100.00;102941.94;5072849;28;20419;-65
2021/03/05 00:05:06;;;;;;;22.83;13.38;;;;;;;6.60;100.00;102952.69;5072822;28;20075;-65
2021/03/05 00:07:32;;;;;;;20.40;13.00;;;;;;;6.61;100.00;102954.38;5072895;28;20041;-65
2021/03/05 00:09:58;;;;;;;20.80;12.35;;;;;;;6.63;100.00;102948.78;5072795;28;20039;-65
2021/03/05 00:12:24;;;;;;;21.13;13.50;;;;;;;6.66;100.00;102956.59;5072653;28;20040;-65
2021/03/05 00:14:49;;;;;;;20.50;13.32;;;;;;;6.67;100.00;102961.00;5072703;28;20048;-66
2021/03/05 00:17:15;;;;;;;20.75;13.30;;;;;;;6.66;100.00;102964.75;5072659;28;20088;-65
2021/03/05 00:19:41;;;;;;;20.25;13.07;;;;;;;6.67;100.00;102962.88;5072837;28;20035;-65
2021/03/05 00:22:08;;;;;;;19.25;12.05;;;;;;;6.66;100.00;102970.16;5072546;28;20033;-65
2021/03/05 00:24:34;;;;;;;17.98;12.07;;;;;;;6.65;100.00;102963.03;5072520;28;20430;-66
2021/03/05 00:27:00;;;;;;;20.27;12.30;;;;;;;6.64;100.00;102967.63;5072357;28;20055;-65
2021/03/05 00:29:26;;;;;;;21.20;12.68;;;;;;;6.65;100.00;102968.47;5072519;28;20039;-65
2021/03/05 00:31:51;;;;;;;19.77;12.00;;;;;;;6.65;100.00;102968.47;5072285;28;20447;-65
2021/03/05 00:34:17;;;;;;;17.23;11.63;;;;;;;6.66;100.00;102972.88;5072180;28;20061;-66
2021/03/05 00:36:43;;;;;;;20.88;12.70;;;;;;;6.63;100.00;102967.78;5072258;28;20048;-64
2021/03/05 00:39:08;;;;;;;19.42;13.10;;;;;;;6.64;100.00;102969.50;5072343;28;20067;-65
2021/03/05 00:41:35;;;;;;;20.38;12.85;;;;;;;6.63;100.00;102978.66;5072048;28;20041;-64
2021/03/05 00:44:02;;;;;;;19.70;12.23;;;;;;;6.62;100.00;102980.50;5072450;28;20036;-66
2021/03/05 00:46:28;;;;;;;19.90;12.93;;;;;;;6.63;100.00;102981.38;5072010;28;20052;-65
2021/03/05 00:48:54;;;;;;;17.83;12.00;;;;;;;6.64;100.00;102977.63;5072019;28;20372;-66
2021/03/05 00:51:19;;;;;;;17.17;12.02;;;;;;;6.62;100.00;102979.66;5071904;28;20459;-66
2021/03/05 00:53:45;;;;;;;18.00;11.57;;;;;;;6.61;100.00;102983.41;5071691;28;20486;-66
2021/03/05 00:56:11;;;;;;;15.75;11.40;;;;;;;6.60;100.00;102979.84;5071888;28;20063;-66
2021/03/05 00:58:37;;;;;;;17.52;11.75;;;;;;;6.60;100.00;102981.69;5072030;28;20386;-64
2021/03/05 01:01:02;;;;;;;14.02;11.05;;;;;;;6.59;100.00;102985.41;5053943;28;20032;-64
2021/03/05 01:03:28;;;;;;;15.85;10.27;;;;;;;6.57;100.00;102982.00;5071748;28;20063;-65
2021/03/05 01:05:54;;;;;;;14.85;10.57;;;;;;;6.55;100.00;102978.59;5071828;28;20487;-65
2021/03/05 01:08:19;;;;;;;18.58;11.40;;;;;;;6.55;100.00;102984.03;5071836;28;20029;-64
2021/03/05 01:10:45;;;;;;;14.90;10.82;;;;;;;6.53;100.00;102980.63;5071747;28;20566;-68
2021/03/05 01:13:11;;;;;;;16.80;12.25;;;;;;;6.53;100.00;102976.06;5071604;28;20371;-67
2021/03/05 01:15:36;;;;;;;14.63;10.50;;;;;;;6.52;100.00;102978.94;5071668;28;20491;-66
2021/03/05 01:18:03;;;;;;;13.68;10.65;;;;;;;6.50;100.00;102975.53;5071326;28;20060;-67
2021/03/05 01:20:29;;;;;;;16.33;11.57;;;;;;;6.50;100.00;102981.81;5071638;28;20078;-67
2021/03/05 01:22:55;;;;;;;14.30;10.32;;;;;;;6.48;100.00;102983.84;5071539;28;20757;-65
2021/03/05 01:25:24;;;;;;;15.40;10.68;;;;;;;6.43;100.00;102979.94;5071495;28;20082;-68
2021/03/05 01:27:50;;;;;;;13.70;9.88;;;;;;;6.44;100.00;102984.34;5071657;28;20032;-67
2021/03/05 01:30:16;;;;;;;16.13;9.13;;;;;;;6.43;100.00;102990.78;5070115;28;20484;-68
2021/03/05 01:32:42;;;;;;;12.85;9.02;;;;;;;6.41;100.00;102988.19;5071304;28;20059;-68
2021/03/05 01:35:15;;;;;;;13.32;8.30;;;;;;;6.39;100.00;102995.66;5071505;28;20047;-66
2021/03/05 01:37:40;;;;;;;10.20;7.68;;;;;;;6.38;100.00;102993.97;5071374;28;20032;-65
2021/03/05 01:40:11;;;;;;;8.75;7.43;;;;;;;6.36;100.00;102990.56;5071347;28;20052;-66
2021/03/05 01:42:36;;;;;;;9.23;7.22;;;;;;;6.35;100.00;102995.13;5071298;28;20534;-64
2021/03/05 01:45:06;;;;;;;9.27;6.57;;;;;;;6.34;100.00;102996.16;5071272;28;20074;-66
2021/03/05 01:47:32;;;;;;;9.95;7.47;;;;;;;6.33;100.00;102996.31;5071108;28;20036;-66
2021/03/05 01:49:57;;;;;;;8.75;7.18;;;;;;;6.32;100.00;102998.19;5071287;28;20445;-65
2021/03/05 01:52:23;;;;;;;8.43;7.03;;;;;;;6.29;100.00;102998.50;5070980;28;20429;-66
2021/03/05 01:54:49;;;;;;;9.52;7.22;;;;;;;6.28;100.00;102998.66;5071142;28;20083;-65
2021/03/05 01:57:15;;;;;;;9.82;6.88;;;;;;;6.28;100.00;102999.53;5071181;28;20040;-66
2021/03/05 01:59:41;;;;;;;8.68;7.07;;;;;;;6.27;100.00;102997.81;5071194;28;20044;-65
2021/03/05 02:02:08;;;;;;;10.23;7.70;;;;;;;6.25;100.00;102999.84;5071094;28;20189;-65
2021/03/05 02:04:35;;;;;;;11.70;7.80;;;;;;;6.25;100.00;102999.84;5071140;28;20089;-65
2021/03/05 02:07:04;;;;;;;8.55;7.03;;;;;;;6.26;100.00;103001.56;5071088;28;20110;-64
2021/03/05 02:09:29;;;;;;;10.18;7.60;;;;;;;6.27;100.00;102992.41;5071101;28;20214;-65
2021/03/05 02:11:55;;;;;;;10.63;7.47;;;;;;;6.25;100.00;102999.84;5070912;28;20123;-66
2021/03/05 02:14:21;;;;;;;9.43;6.97;;;;;;;6.24;100.00;102995.41;5070985;28;20494;-65
2021/03/05 02:17:16;;;;;;;10.02;7.68;;;;;;;6.22;100.00;102993.88;5071028;28;20075;-65
2021/03/05 02:20:00;;;;;;;10.07;7.57;;;;;;;6.21;100.00;102998.44;5070910;28;20463;-64
2021/03/05 02:22:31;;;;;;;12.00;8.55;;;;;;;6.19;100.00;102994.19;5071041;28;20055;-65
2021/03/05 02:25:35;;;;;;;10.70;8.23;;;;;;;6.15;100.00;102993.66;5070677;28;20437;-65
2021/03/05 02:28:25;;;;;;;9.10;7.00;;;;;;;6.12;100.00;102991.28;5070867;28;20039;-66
2021/03/05 02:31:18;;;;;;;12.95;9.05;;;;;;;6.05;100.00;103001.06;5072874;28;20037;-65
2021/03/05 02:33:55;;;;;;;10.48;7.45;;;;;;;6.05;100.00;102996.47;5074530;28;20075;-64
2021/03/05 02:36:59;;;;;;;10.38;7.35;;;;;;;6.00;100.00;103006.13;5074520;28;20029;-65
2021/03/05 02:39:37;;;;;;;10.30;7.80;;;;;;;5.96;100.00;102997.44;5071683;28;20040;-64
2021/03/05 02:42:07;;;;;;;9.43;7.32;;;;;;;5.93;100.00;102999.63;5074363;28;20032;-65
2021/03/05 02:44:50;;;;;;;12.07;8.25;;;;;;;5.90;100.00;102999.94;5074368;28;20036;-65
2021/03/05 02:47:20;;;;;;;9.15;7.20;;;;;;;5.88;100.00;103001.91;5074325;28;20139;-65
2021/03/05 02:49:51;;;;;;;9.70;7.32;;;;;;;5.85;100.00;103008.50;5074649;28;20070;-64
2021/03/05 02:52:19;;;;;;;10.02;7.75;;;;;;;5.86;100.00;103009.38;5074172;28;20486;-65
2021/03/05 02:54:55;;;;;;;9.48;7.97;;;;;;;5.86;100.00;103012.06;5074292;28;20040;-64
2021/03/05 02:57:26;;;;;;;13.00;8.15;;;;;;;5.87;100.00;103011.06;5056230;28;20516;-66
2021/03/05 02:59:53;;;;;;;11.07;8.30;;;;;;;5.88;100.00;103013.63;5074305;28;20370;-64
2021/03/05 03:02:24;;;;;;;10.63;7.75;;;;;;;5.90;100.00;103016.19;5074019;28;20051;-65
2021/03/05 03:04:51;;;;;;;12.18;8.27;;;;;;;5.92;100.00;103019.63;5074141;28;20033;-65
2021/03/05 03:07:17;;;;;;;11.50;7.43;;;;;;;5.93;100.00;103010.47;5074023;28;20063;-65
2021/03/05 03:09:43;;;;;;;14.05;7.95;;;;;;;5.94;100.00;103023.88;5074075;28;20044;-66
2021/03/05 03:12:10;;;;;;;12.75;8.80;;;;;;;5.95;100.00;103022.88;5073948;28;20037;-65
2021/03/05 03:14:41;;;;;;;12.93;8.68;;;;;;;5.95;100.00;103027.44;5073849;28;20047;-65
2021/03/05 03:17:08;;;;;;;12.68;8.52;;;;;;;5.96;100.00;103018.31;5073764;28;20039;-66
2021/03/05 03:19:34;;;;;;;15.00;9.35;;;;;;;5.95;100.00;103022.03;5073801;28;20040;-66
2021/03/05 03:22:01;;;;;;;13.27;9.35;;;;;;;5.92;100.00;103025.06;5073578;28;20489;-64
2021/03/05 03:24:27;;;;;;;12.85;9.27;;;;;;;5.91;100.00;103017.94;5073667;28;20039;-66
2021/03/05 03:26:53;;;;;;;12.85;9.93;;;;;;;5.90;100.00;103027.03;5073705;28;20044;-66
2021/03/05 03:29:19;;;;;;;14.27;10.10;;;;;;;5.87;100.00;103021.91;5073511;28;20047;-64
2021/03/05 03:31:45;;;;;;;16.80;9.90;;;;;;;5.85;100.00;103024.78;5073422;28;20082;-66
2021/03/05 03:34:12;;;;;;;17.80;11.32;;;;;;;5.83;100.00;103015.09;5073325;28;20036;-64
2021/03/05 03:36:40;;;;;;;16.33;10.90;;;;;;;5.80;100.00;103015.44;5055653;28;20033;-63
2021/03/05 03:39:08;;;;;;;15.98;11.43;;;;;;;5.79;100.00;103016.44;5073369;28;20039;-65
2021/03/05 03:41:35;;;;;;;18.05;13.20;;;;;;;5.75;100.00;103019.47;5072954;28;20036;-68
2021/03/05 03:44:02;;;;;;;18.15;11.63;;;;;;;5.75;100.00;103024.91;5073314;28;20111;-68
2021/03/05 03:46:29;;;;;;;16.75;11.70;;;;;;;5.74;100.00;103020.47;5072628;28;20048;-67
2021/03/05 03:48:58;;;;;;;21.35;13.13;;;;;;;5.73;100.00;103020.63;5071998;28;20044;-67
2021/03/05 03:51:26;;;;;;;19.80;12.80;;;;;;;5.72;100.00;103019.75;5071982;28;20043;-68
2021/03/05 03:53:55;;;;;;;19.17;13.13;;;;;;;5.72;100.00;103019.75;5071944;28;20040;-68
2021/03/05 03:56:22;;;;;;;22.05;13.90;;;;;;;5.70;100.00;103019.06;5071908;28;20032;-68
2021/03/05 03:58:49;;;;;;;20.10;13.05;;;;;;;5.69;100.00;103020.06;5072021;28;20359;-68
2021/03/05 04:01:18;;;;;;;23.10;13.40;;;;;;;5.68;100.00;103020.22;5054005;28;20441;-67
2021/03/05 04:03:48;;;;;;;20.13;13.32;;;;;;;5.67;100.00;103032.94;5071712;28;20036;-67
2021/03/05 04:06:18;;;;;;;24.20;14.48;;;;;;;5.67;100.00;103032.94;5053724;28;20036;-67
2021/03/05 04:08:44;;;;;;;24.08;12.77;;;;;;;5.66;100.00;103033.94;5071871;28;20437;-67
2021/03/05 04:11:10;;;;;;;22.40;13.13;;;;;;;5.68;100.00;103042.78;5053674;28;20044;-68
2021/03/05 04:13:37;;;;;;;23.20;13.23;;;;;;;5.69;100.00;103040.91;5071637;28;20118;-67
2021/03/05 04:16:04;;;;;;;21.10;12.95;;;;;;;5.69;100.00;103038.22;5071662;28;20032;-67
2021/03/05 04:18:32;;;;;;;22.08;13.93;;;;;;;5.71;100.00;103041.59;5072064;28;20036;-67
2021/03/05 04:21:01;;;;;;;24.08;13.98;;;;;;;5.71;100.00;103052.47;5071480;28;20036;-66
2021/03/05 04:23:27;;;;;;;19.40;12.30;;;;;;;5.70;100.00;103054.31;5071745;28;20055;-67
2021/03/05 04:25:53;;;;;;;17.05;11.60;;;;;;;5.70;100.00;103059.75;5071415;28;20041;-68
2021/03/05 04:28:19;;;;;;;20.23;10.85;;;;;;;5.70;100.00;103064.31;5071406;28;20050;-67
2021/03/05 04:30:44;;;;;;;22.67;11.40;;;;;;;5.69;100.00;103063.47;5071378;28;20032;-67
2021/03/05 04:33:10;;;;;;;17.30;11.05;;;;;;;5.70;100.00;103075.16;5071160;28;20043;-66
2021/03/05 04:35:35;;;;;;;20.08;10.52;;;;;;;5.68;100.00;103071.75;5071294;28;20042;-64
2021/03/05 04:38:01;;;;;;;17.65;10.40;;;;;;;5.68;100.00;103078.03;5071319;28;20072;-65
2021/03/05 04:40:27;;;;;;;17.35;10.23;;;;;;;5.67;100.00;103079.03;5071259;28;20047;-69
2021/03/05 04:42:52;;;;;;;17.02;9.55;;;;;;;5.67;100.00;103075.47;5071161;28;20082;-67
2021/03/05 04:45:18;;;;;;;17.85;9.48;;;;;;;5.68;100.00;103077.16;5071111;28;20045;-68
2021/03/05 04:47:44;;;;;;;14.30;8.40;;;;;;;5.65;100.00;103083.75;5047707;28;695045;-68
2021/03/05 04:50:10;;;;;;;18.08;8.68;;;;;;;5.63;100.00;103083.06;5071893;28;20470;-67
2021/03/05 04:52:35;;;;;;;16.35;8.55;;;;;;;5.62;100.00;103083.22;5071085;28;20474;-66
2021/03/05 04:55:01;;;;;;;14.65;7.53;;;;;;;5.58;100.00;103088.13;5072338;28;20090;-67
2021/03/05 04:57:27;;;;;;;10.27;7.05;;;;;;;5.57;100.00;103094.53;5072006;28;20044;-68
2021/03/05 04:59:53;;;;;;;11.48;7.00;;;;;;;5.54;100.00;103086.69;5071811;28;20036;-67
2021/03/05 05:02:19;;;;;;;17.48;7.68;;;;;;;5.52;100.00;103093.28;5071772;28;20046;-67
2021/03/05 05:04:44;;;;;;;10.90;7.28;;;;;;;5.50;100.00;103098.84;5071721;28;20076;-67
2021/03/05 05:07:10;;;;;;;17.00;7.47;;;;;;;5.48;100.00;103095.44;5071643;28;20091;-66
2021/03/05 05:09:35;;;;;;;12.20;6.22;;;;;;;5.46;100.00;103108.31;5071535;28;20052;-65
2021/03/05 05:12:01;;;;;;;16.05;7.25;;;;;;;5.43;100.00;103114.88;5071512;28;20040;-65
2021/03/05 05:14:27;;;;;;;15.60;8.00;;;;;;;5.40;100.00;103111.63;5071477;28;20047;-65
2021/03/05 05:16:52;;;;;;;14.20;6.00;;;;;;;5.35;100.00;103113.94;5071570;28;20576;-65
2021/03/05 05:19:18;;;;;;;12.20;6.95;;;;;;;5.32;100.00;103104.25;5071546;28;20067;-65
2021/03/05 05:21:43;;;;;;;13.95;6.68;;;;;;;5.31;100.00;103104.41;5036867;28;20079;-65
2021/03/05 05:24:09;;;;;;;16.65;6.00;;;;;;;5.29;100.00;103114.53;5071521;28;20036;-64
2021/03/05 05:26:35;;;;;;;9.48;6.00;;;;;;;5.26;100.00;103109.44;5071228;28;20032;-65
2021/03/05 05:29:00;;;;;;;10.05;5.10;;;;;;;5.23;100.00;103116.03;5071311;28;20051;-66
2021/03/05 05:31:26;;;;;;;17.60;5.90;;;;;;;5.22;100.00;103113.47;5071231;28;20048;-65
2021/03/05 05:33:52;;;;;;;9.18;5.38;;;;;;;5.21;100.00;103117.19;5071101;28;20468;-65
2021/03/05 05:36:17;;;;;;;12.90;5.53;;;;;;;5.19;100.00;103119.16;5071136;28;20042;-65
2021/03/05 05:38:43;;;;;;;16.55;5.80;;;;;;;5.18;100.00;103112.03;5071068;28;20040;-64
2021/03/05 05:41:09;;;;;;;12.90;5.45;;;;;;;5.17;100.00;103123.88;5053199;28;20122;-65
2021/03/05 05:43:35;;;;;;;15.25;5.57;;;;;;;5.12;100.00;103119.78;5070968;28;20033;-65
2021/03/05 05:46:09;;;;;;;7.90;4.68;;;;;;;5.11;100.00;103126.19;5070837;28;20048;-64
2021/03/05 05:48:36;;;;;;;13.98;6.20;;;;;;;5.07;100.00;103127.50;5071186;28;20054;-65
2021/03/05 05:51:05;;;;;;;16.48;6.15;;;;;;;5.04;100.00;103133.22;5071047;28;20033;-65
2021/03/05 05:53:34;;;;;;;8.98;5.03;;;;;;;5.02;100.00;103132.50;5070708;28;20078;-66
2021/03/05 05:56:00;;;;;;;14.70;5.30;;;;;;;4.99;100.00;103131.94;5070843;28;20101;-65
2021/03/05 05:58:27;;;;;;;12.38;5.10;;;;;;;4.94;100.00;103132.41;5070854;28;20040;-65
2021/03/05 06:00:55;;;;;;;11.75;4.78;;;;;;;4.92;100.00;103128.13;5070872;28;20063;-64
2021/03/05 06:03:24;;;;;;;11.70;5.18;;;;;;;4.89;100.00;103129.31;5070805;28;20031;-66
2021/03/05 06:05:51;;;;;;;15.20;4.70;;;;;;;4.87;100.00;103136.72;5070726;28;20045;-66
2021/03/05 06:08:17;;;;;;;11.25;4.15;;;;;;;4.83;100.00;103135.28;5070825;28;20403;-64
2021/03/05 06:10:43;;;;;;;13.75;3.78;;;;;;;4.78;100.00;103143.84;5070650;28;20036;-64
2021/03/05 06:13:09;;;;;;;9.75;2.90;;;;;;;4.76;100.00;103140.44;5070482;28;20040;-65
2021/03/05 06:15:34;;;;;;;10.88;3.15;;;;;;;4.72;100.00;103143.59;5070579;28;20029;-64
2021/03/05 06:18:00;;;;;;;8.55;3.30;;;;;;;4.69;100.00;103143.91;5052620;28;20047;-65
2021/03/05 06:20:44;;;;;;;11.75;3.58;;;;;;;4.66;100.00;103144.19;5070673;28;20044;-64
2021/03/05 06:23:13;;;;;;;20.30;3.00;;;;;;;4.65;100.00;103142.47;5070699;28;20510;-65
2021/03/05 06:25:39;;;;;;;10.35;3.53;;;;;;;4.63;100.00;103152.59;5070536;28;20051;-64
2021/03/05 06:28:15;;;;;;;10.10;2.80;;;;;;;4.62;100.00;103159.00;5070489;28;20040;-65
2021/03/05 06:30:42;;;;;;;9.48;2.75;;;;;;;4.60;100.00;103163.72;5070754;28;20589;-64
2021/03/05 06:33:27;;;;;;;11.05;4.35;;;;;;;4.59;100.00;103164.72;5070369;28;20041;-64
2021/03/05 06:35:54;;;;;;;13.98;3.40;;;;;;;4.59;100.00;103164.72;5070437;28;20037;-66
2021/03/05 06:38:40;;;;;;;9.75;3.50;;;;;;;4.56;100.00;103165.00;5070522;28;20074;-65
2021/03/05 06:41:19;;;;;;;11.50;3.58;;;;;;;4.56;100.00;103165.00;5070450;28;20032;-65
2021/03/05 06:43:47;;;;;;;10.77;3.42;;;;;;;4.54;100.00;103166.03;5070252;28;20040;-63
2021/03/05 06:46:38;;;;;;;7.78;2.63;;;;;;;4.53;100.00;103175.13;5070176;28;20131;-65
2021/03/05 06:49:04;;;;;;;14.85;3.17;;;;;;;4.53;100.00;103185.97;5070442;28;20041;-64
2021/03/05 06:51:30;;;;;;;13.45;4.40;;;;;;;4.52;100.00;103181.56;5070559;28;20040;-64
2021/03/05 06:54:15;;;;;;;10.40;2.40;;;;;;;4.50;100.00;103193.50;5070293;28;20036;-66
2021/03/05 06:56:41;;;;;;;;;;;;;;;4.48;100.00;103190.09;5070771;28;20410;-64
2021/03/05 06:59:11;;;;;;;6.95;2.08;;;;;;;4.46;100.00;103192.94;5070228;28;19913;-64
2021/03/05 07:01:57;;;;;;;10.98;2.08;;;;;;;4.47;100.00;103193.78;5070156;28;20044;-65
2021/03/05 07:04:23;;;;;;;11.43;2.28;;;;;;;4.47;100.00;103200.06;5070303;28;20032;-65
2021/03/05 07:07:19;;;;;;;9.77;1.63;;;;;;;4.46;100.00;103203.75;5052078;28;20093;-65
2021/03/05 07:09:52;;;;;;;9.82;2.42;;;;;;;4.47;100.00;103204.63;4969119;28;20098;-65
2021/03/05 07:12:24;;;;;;;13.27;2.72;;;;;;;4.48;100.00;103209.88;4969118;28;20513;-63
2021/03/05 07:15:00;;;;;;;10.20;3.10;;;;;;;4.50;100.00;103207.03;5059405;28;20487;-64
2021/03/05 07:17:26;;;;;;;8.80;2.08;;;;;;;4.51;100.00;103212.31;5072785;28;20119;-65
2021/03/05 07:19:54;;;;;;;9.98;2.28;;;;;;;4.54;100.00;103208.47;5073747;28;20033;-65
2021/03/05 07:22:24;;;;;;;30.52;4.82;;;;;;;4.56;100.00;103214.59;5073622;28;20123;-64
2021/03/05 07:24:51;;;;;;;8.93;2.63;;;;;;;4.59;100.00;103216.16;5074073;28;20095;-65
2021/03/05 07:27:21;;;;;;;12.50;2.92;;;;;;;4.62;100.00;103223.97;5073555;28;20047;-66
2021/03/05 07:29:48;;;;;;;14.10;3.25;;;;;;;4.64;100.00;103227.38;5074111;28;20123;-66
2021/03/05 07:32:50;;;;;;;10.85;1.65;;;;;;;4.66;100.00;103236.22;5073428;28;20033;-65
2021/03/05 07:35:27;;;;;;;8.98;1.95;;;;;;;4.65;100.00;103234.50;5021528;28;20060;-65
2021/03/05 07:38:05;;;;;;;13.00;2.33;;;;;;;4.68;100.00;103239.63;5073709;28;20035;-64
2021/03/05 07:40:31;;;;;;;11.77;1.98;;;;;;;4.67;100.00;103229.81;5073397;28;20036;-65
2021/03/05 07:42:59;;;;;;;10.23;2.20;;;;;;;4.68;100.00;103239.63;5073282;28;20032;-64
2021/03/05 07:45:25;;;;;;;11.18;2.08;;;;;;;4.68;100.00;103243.19;5073326;28;20040;-65
2021/03/05 07:47:55;;;;;;;7.95;1.20;;;;;;;4.69;100.00;103246.78;5073052;28;20052;-65
2021/03/05 07:50:26;;;;;;;7.78;1.83;;;;;;;4.69;100.00;103257.59;5073006;28;20490;-65
2021/03/05 07:52:57;;;;;;;10.38;1.73;;;;;;;4.66;100.00;103252.47;5073540;28;20032;-65
2021/03/05 07:55:43;;;;;;;9.18;1.70;;;;;;;4.68;100.00;103255.88;5073132;28;20060;-65
2021/03/05 07:58:08;;;;;;;10.27;2.00;;;;;;;4.65;100.00;103256.16;5073200;28;20047;-66
2021/03/05 08:00:45;;;;;;;8.70;2.40;;;;;;;4.60;100.00;103263.88;5072971;28;20033;-65
2021/03/05 08:03:11;;;;;;;11.68;1.95;;;;;;;4.57;100.00;103269.56;5072823;28;20047;-66
2021/03/05 08:05:42;;;;;;;7.72;2.55;;;;;;;4.52;100.00;103262.75;5072768;28;20503;-68
2021/03/05 08:08:08;;;;;;;10.95;1.30;;;;;;;4.50;100.00;103269.28;5072854;28;20033;-67
2021/03/05 08:10:35;;;;;;;10.00;1.70;;;;;;;4.48;100.00;103266.72;5072796;28;20040;-67
2021/03/05 08:13:01;;;;;;;15.07;2.70;;;;;;;4.46;100.00;103279.53;5072746;28;20471;-67
2021/03/05 08:15:27;;;;;;;14.43;2.45;;;;;;;4.48;100.00;103282.09;5054764;28;20105;-67
2021/03/05 08:17:54;;;;;;;5.65;1.38;;;;;;;4.48;100.00;103272.13;5072736;28;20494;-67
2021/03/05 08:20:20;;;;;;;6.15;1.73;;;;;;;4.50;100.00;103278.25;5072521;28;20398;-66
2021/03/05 08:23:03;;;;;;;16.10;1.80;;;;;;;4.54;100.00;103293.22;5072492;28;20028;-67
2021/03/05 08:25:38;;;;;;;11.93;1.67;;;;;;;4.60;100.00;103290.94;5054508;28;20040;-66
2021/03/05 08:28:05;;;;;;;11.40;2.53;;;;;;;4.66;100.00;103293.06;5071380;28;20036;-67
2021/03/05 08:30:33;;;;;;;7.70;1.95;;;;;;;4.73;100.00;103291.50;5072351;28;20037;-66
2021/03/05 08:32:59;;;;;;;9.80;1.67;;;;;;;4.81;100.00;103294.34;5072212;28;20033;-68
2021/03/05 08:35:30;;;;;;;7.93;1.20;;;;;;;4.89;100.00;103283.66;5072233;28;20058;-66
2021/03/05 08:37:56;;;;;;;10.32;1.25;;;;;;;4.95;100.00;103302.03;5070181;28;20123;-68
2021/03/05 08:40:24;;;;;;;8.60;1.73;;;;;;;5.02;100.00;103296.88;5066353;28;20163;-68
2021/03/05 08:42:57;;;;;;;10.85;1.42;;;;;;;5.08;100.00;103291.75;5019242;28;20123;-65
2021/03/05 08:45:30;;;;;;;13.20;1.70;;;;;;;5.13;100.00;103300.28;5053797;28;20448;-65
2021/03/05 08:47:59;;;;;;;9.35;1.52;;;;;;;5.19;100.00;103295.25;5052427;28;20052;-68
2021/03/05 08:50:31;;;;;;;9.90;1.23;;;;;;;5.25;100.00;103297.41;5071422;28;20453;-68
2021/03/05 08:53:03;;;;;;;6.63;1.50;;;;;;;5.33;100.00;103300.22;5071150;28;20072;-67
2021/03/05 08:55:30;;;;;;;6.05;1.10;;;;;;;5.39;100.00;103303.22;5053416;28;20028;-68
2021/03/05 08:57:56;;;;;;;6.50;1.65;;;;;;;5.46;100.00;103306.19;5071318;28;20044;-68
2021/03/05 09:00:28;;;;;;;11.57;1.60;;;;;;;5.53;100.00;103301.84;5053346;28;20043;-68
2021/03/05 09:03:11;;;;;;;8.70;1.42;;;;;;;5.61;100.00;103312.81;5068056;28;20053;-68
2021/03/05 09:05:42;;;;;;;5.70;1.23;;;;;;;5.64;100.00;103304.38;5062708;28;20040;-67
2021/03/05 09:08:12;;;;;;;8.68;1.30;;;;;;;5.66;100.00;103305.09;5070254;28;20029;-68
2021/03/05 09:10:45;;;;;;;7.47;1.40;;;;;;;5.64;100.00;103314.38;5071152;28;20060;-68
2021/03/05 09:13:14;;;;;;;5.53;1.27;;;;;;;5.67;100.00;103308.66;5070849;28;20064;-66
2021/03/05 09:15:54;;;;;;;6.38;2.10;;;;;;;5.67;100.00;103305.94;5071305;28;20032;-68
2021/03/05 09:18:23;;;;;;;7.55;1.08;;;;;;;5.68;100.00;103313.94;5071519;28;20064;-68
2021/03/05 09:20:56;;;;;;;7.57;1.20;;;;;;;5.71;100.00;103305.50;5071328;28;20558;-67
2021/03/05 09:23:33;;;;;;;7.32;1.48;;;;;;;5.73;100.00;103314.34;5071031;28;20475;-66
2021/03/05 09:26:19;;;;;;;3.50;1.25;;;;;;;5.77;100.00;103305.91;5071262;28;20044;-67
2021/03/05 09:28:56;;;;;;;5.85;1.08;;;;;;;5.83;100.00;103310.72;5070984;28;20059;-65
2021/03/05 09:31:24;;;;;;;5.45;1.10;;;;;;;5.89;100.00;103312.81;5071209;28;20463;-67
2021/03/05 09:33:50;;;;;;;4.90;1.05;;;;;;;5.94;100.00;103311.41;5070356;28;20036;-65
2021/03/05 09:36:18;;;;;;;10.13;1.92;;;;;;;5.99;100.00;103302.81;5071027;28;20090;-63
2021/03/05 09:38:45;;;;;;;6.82;1.15;;;;;;;6.05;100.00;103308.47;5070135;28;20029;-62
2021/03/05 09:41:25;;;;;;;10.50;1.85;;;;;;;6.11;100.00;103320.59;5064028;28;20491;-62
2021/03/05 09:44:10;;;;;;;7.68;1.25;;;;;;;6.14;100.00;103323.00;5070111;28;20025;-62
2021/03/05 09:46:38;;;;;;;7.90;1.67;;;;;;;6.16;100.00;103315.56;5070986;28;20053;-64
2021/03/05 09:49:26;;;;;;;8.82;1.60;;;;;;;6.14;100.00;103323.00;5070508;28;20127;-62
2021/03/05 09:51:52;;;;;;;7.38;1.85;;;;;;;6.17;100.00;103322.72;5070529;28;20482;-62
2021/03/05 09:54:33;;;;;;;11.07;1.40;;;;;;;6.20;100.00;103316.13;5070545;28;20038;-62
2021/03/05 09:56:58;;;;;;;12.98;1.50;;;;;;;6.21;100.00;103307.81;5052570;28;20032;-63
2021/03/05 09:59:24;;;;;;;5.32;1.02;;;;;;;6.25;100.00;103314.66;5069951;28;20038;-60
2021/03/05 10:01:50;;;;;;;4.68;0.90;;;;;;;6.29;100.00;103321.50;5070422;28;20047;-63
2021/03/05 10:04:15;;;;;;;8.23;1.48;;;;;;;6.37;100.00;103317.16;5070522;28;20041;-62
2021/03/05 10:06:41;;;;;;;5.82;1.67;;;;;;;6.44;100.00;103318.25;5052620;28;20037;-64
2021/03/05 10:09:12;;;;;;;8.48;1.50;;;;;;;6.50;100.00;103320.34;5070219;28;20433;-63
2021/03/05 10:11:45;;;;;;;7.05;1.30;;;;;;;6.56;100.00;103319.72;5070468;28;20468;-62
2021/03/05 10:14:11;;;;;;;6.57;1.35;;;;;;;6.55;100.00;103321.56;5070385;28;20421;-63
2021/03/05 10:16:41;;;;;;;8.10;1.20;;;;;;;6.50;100.00;103323.06;5070319;28;20047;-62
2021/03/05 10:19:15;;;;;;;8.27;1.92;;;;;;;6.52;100.00;103326.47;5069813;28;20182;-63
2021/03/05 10:21:46;;;;;;;5.40;1.40;;;;;;;6.52;100.00;103332.75;5070320;28;20396;-62
2021/03/05 10:24:16;;;;;;;6.05;1.20;;;;;;;6.57;100.00;103329.56;5069949;28;20039;-62
2021/03/05 10:27:21;;;;;;;4.32;1.17;;;;;;;6.63;100.00;103339.81;5070237;28;20028;-63
2021/03/05 10:29:51;;;;;;;5.72;1.00;;;;;;;6.64;100.00;103342.38;5070022;28;20028;-64
2021/03/05 10:32:33;;;;;;;8.48;1.35;;;;;;;6.62;100.00;103336.25;5070099;28;20098;-63
2021/03/05 10:35:05;;;;;;;5.32;1.10;;;;;;;6.66;100.00;103334.06;5070302;28;20037;-65
2021/03/05 10:37:32;;;;;;;5.50;0.98;;;;;;;6.74;100.00;103341.44;5069947;28;20028;-65
2021/03/05 10:39:59;;;;;;;5.57;1.77;;;;;;;6.80;100.00;103336.25;5069619;28;20273;-66
2021/03/05 10:42:25;;;;;;;6.32;1.00;;;;;;;6.86;100.00;103349.19;5070323;28;20470;-66
2021/03/05 10:44:51;;;;;;;9.38;1.85;;;;;;;6.89;100.00;103346.16;5070249;28;20055;-65
2021/03/05 10:47:19;;;;;;;7.70;1.67;;;;;;;6.91;100.00;103344.13;5069081;28;20181;-62
2021/03/05 10:49:45;;;;;;;6.22;1.73;;;;;;;6.88;100.00;103349.03;5069829;28;20068;-65
2021/03/05 10:52:12;;;;;;;4.30;1.48;;;;;;;6.91;100.00;103344.13;5072662;28;20036;-65
2021/03/05 10:54:42;;;;;;;5.20;1.20;;;;;;;6.98;100.00;103349.81;5073846;28;20055;-65
2021/03/05 10:57:12;;;;;;;5.30;1.20;;;;;;;7.06;100.00;103340.88;5073843;28;20086;-66
2021/03/05 10:59:38;;;;;;;6.07;1.50;;;;;;;7.16;100.00;103347.06;5073603;28;20077;-64
2021/03/05 11:02:04;;;;;;;8.43;1.73;;;;;;;7.20;100.00;103353.91;5073663;28;20115;-65
2021/03/05 11:04:30;;;;;;;5.03;1.40;;;;;;;7.22;100.00;103344.56;5055601;28;20570;-66
2021/03/05 11:06:56;;;;;;;7.68;1.95;;;;;;;7.27;100.00;103354.97;5073883;28;20120;-66
2021/03/05 11:09:27;;;;;;;6.03;1.05;;;;;;;7.33;100.00;103348.91;5073337;28;20671;-65
2021/03/05 11:11:54;;;;;;;4.45;1.20;;;;;;;7.40;100.00;103357.25;5073945;28;20385;-65
2021/03/05 11:14:20;;;;;;;7.43;1.65;;;;;;;7.46;100.00;103353.88;5073813;28;20041;-65
2021/03/05 11:16:46;;;;;;;5.75;1.52;;;;;;;7.51;100.00;103363.31;5073842;28;20131;-66
2021/03/05 11:19:12;;;;;;;4.80;2.28;;;;;;;7.51;100.00;103363.31;5055382;28;20134;-66
2021/03/05 11:21:38;;;;;;;6.60;1.50;;;;;;;7.51;99.67;103368.75;5073544;28;20028;-63
2021/03/05 11:24:05;;;;;;;7.35;2.58;;;;;;;7.48;99.49;103363.63;5073590;28;20391;-64
2021/03/05 11:26:31;;;;;;;12.55;1.75;;;;;;;7.44;99.09;103367.66;5073567;28;20037;-63
2021/03/05 11:28:56;;;;;;;5.90;2.75;;;;;;;7.40;99.45;103360.84;5073789;28;20063;-63